sensor_id;sensor_type;location;lat;lon;timestamp;temperature;humidity
20526;DHT22;10421;49.142;9.232;2023-03-01T00:00:13;3.80;70.00
20526;DHT22;10421;49.142;9.232;2023-03-01T00:02:41;3.80;70.10
20526;DHT22;10421;49.142;9.232;2023-03-01T00:05:08;3.70;70.10
20526;DHT22;10421;49.142;9.232;2023-03-01T00:07:34;3.70;70.30
20526;DHT22;10421;49.142;9.232;2023-03-01T00:10:02;3.70;70.40
20526;DHT22;10421;49.142;9.232;2023-03-01T00:12:29;3.70;70.40
20526;DHT22;10421;49.142;9.232;2023-03-01T00:14:59;3.60;70.40
20526;DHT22;10421;49.142;9.232;2023-03-01T00:17:27;3.60;70.60
20526;DHT22;10421;49.142;9.232;2023-03-01T00:19:55;3.60;70.80
20526;DHT22;10421;49.142;9.232;2023-03-01T00:22:21;3.50;71.00
20526;DHT22;10421;49.142;9.232;2023-03-01T00:24:49;3.50;71.90
20526;DHT22;10421;49.142;9.232;2023-03-01T00:27:17;3.50;71.30
20526;DHT22;10421;49.142;9.232;2023-03-01T00:29:45;3.50;71.40
20526;DHT22;10421;49.142;9.232;2023-03-01T00:32:14;3.50;71.50
20526;DHT22;10421;49.142;9.232;2023-03-01T00:34:41;3.40;71.50
20526;DHT22;10421;49.142;9.232;2023-03-01T00:37:08;3.40;71.70
20526;DHT22;10421;49.142;9.232;2023-03-01T00:39:34;3.40;71.80
20526;DHT22;10421;49.142;9.232;2023-03-01T00:42:01;3.40;71.90
20526;DHT22;10421;49.142;9.232;2023-03-01T00:44:29;3.40;72.10
20526;DHT22;10421;49.142;9.232;2023-03-01T00:46:56;3.40;72.20
20526;DHT22;10421;49.142;9.232;2023-03-01T00:49:25;3.40;72.10
20526;DHT22;10421;49.142;9.232;2023-03-01T00:51:53;3.40;72.20
20526;DHT22;10421;49.142;9.232;2023-03-01T00:54:20;3.30;72.30
20526;DHT22;10421;49.142;9.232;2023-03-01T00:56:47;3.30;72.60
20526;DHT22;10421;49.142;9.232;2023-03-01T00:59:14;3.30;72.90
20526;DHT22;10421;49.142;9.232;2023-03-01T01:01:42;3.20;73.00
20526;DHT22;10421;49.142;9.232;2023-03-01T01:04:11;3.20;73.20
20526;DHT22;10421;49.142;9.232;2023-03-01T01:06:42;3.20;73.60
20526;DHT22;10421;49.142;9.232;2023-03-01T01:09:11;3.20;73.80
20526;DHT22;10421;49.142;9.232;2023-03-01T01:11:44;3.20;74.00
20526;DHT22;10421;49.142;9.232;2023-03-01T01:14:11;3.10;74.30
20526;DHT22;10421;49.142;9.232;2023-03-01T01:16:38;3.10;74.50
20526;DHT22;10421;49.142;9.232;2023-03-01T01:19:05;3.10;74.60
20526;DHT22;10421;49.142;9.232;2023-03-01T01:21:32;3.10;74.60
20526;DHT22;10421;49.142;9.232;2023-03-01T01:24:03;3.10;74.60
20526;DHT22;10421;49.142;9.232;2023-03-01T01:26:31;3.20;74.60
20526;DHT22;10421;49.142;9.232;2023-03-01T01:28:59;3.20;74.60
20526;DHT22;10421;49.142;9.232;2023-03-01T01:31:27;3.20;74.70
20526;DHT22;10421;49.142;9.232;2023-03-01T01:33:55;3.20;74.70
20526;DHT22;10421;49.142;9.232;2023-03-01T01:36:22;3.20;74.70
20526;DHT22;10421;49.142;9.232;2023-03-01T01:38:49;3.20;74.70
20526;DHT22;10421;49.142;9.232;2023-03-01T01:41:18;3.20;74.80
20526;DHT22;10421;49.142;9.232;2023-03-01T01:43:47;3.20;74.90
20526;DHT22;10421;49.142;9.232;2023-03-01T01:46:21;3.20;75.00
20526;DHT22;10421;49.142;9.232;2023-03-01T01:48:54;3.20;75.00
20526;DHT22;10421;49.142;9.232;2023-03-01T01:51:29;3.20;74.80
20526;DHT22;10421;49.142;9.232;2023-03-01T01:54:07;3.20;74.90
20526;DHT22;10421;49.142;9.232;2023-03-01T01:56:38;3.20;75.00
20526;DHT22;10421;49.142;9.232;2023-03-01T01:59:06;3.20;75.10
20526;DHT22;10421;49.142;9.232;2023-03-01T02:01:33;3.20;75.10
20526;DHT22;10421;49.142;9.232;2023-03-01T02:04:01;3.20;75.20
20526;DHT22;10421;49.142;9.232;2023-03-01T02:06:29;3.20;75.10
20526;DHT22;10421;49.142;9.232;2023-03-01T02:09:03;3.20;75.20
20526;DHT22;10421;49.142;9.232;2023-03-01T02:11:32;3.20;75.20
20526;DHT22;10421;49.142;9.232;2023-03-01T02:14:00;3.30;75.20
20526;DHT22;10421;49.142;9.232;2023-03-01T02:16:27;3.30;75.20
20526;DHT22;10421;49.142;9.232;2023-03-01T02:18:54;3.30;75.20
20526;DHT22;10421;49.142;9.232;2023-03-01T02:21:30;3.20;75.20
20526;DHT22;10421;49.142;9.232;2023-03-01T02:24:08;3.20;75.30
20526;DHT22;10421;49.142;9.232;2023-03-01T02:26:41;3.20;75.40
20526;DHT22;10421;49.142;9.232;2023-03-01T02:29:12;3.20;75.50
20526;DHT22;10421;49.142;9.232;2023-03-01T02:31:39;3.20;75.70
20526;DHT22;10421;49.142;9.232;2023-03-01T02:34:09;3.20;75.70
20526;DHT22;10421;49.142;9.232;2023-03-01T02:36:39;3.20;75.80
20526;DHT22;10421;49.142;9.232;2023-03-01T02:39:10;3.10;75.80
20526;DHT22;10421;49.142;9.232;2023-03-01T02:41:42;3.10;75.90
20526;DHT22;10421;49.142;9.232;2023-03-01T02:44:09;3.10;76.00
20526;DHT22;10421;49.142;9.232;2023-03-01T02:46:44;3.00;76.10
20526;DHT22;10421;49.142;9.232;2023-03-01T02:49:23;3.10;76.30
20526;DHT22;10421;49.142;9.232;2023-03-01T02:52:10;3.00;76.20
20526;DHT22;10421;49.142;9.232;2023-03-01T02:54:40;3.00;76.30
20526;DHT22;10421;49.142;9.232;2023-03-01T02:57:09;3.00;76.50
20526;DHT22;10421;49.142;9.232;2023-03-01T02:59:37;3.00;76.50
20526;DHT22;10421;49.142;9.232;2023-03-01T03:02:06;3.00;76.50
20526;DHT22;10421;49.142;9.232;2023-03-01T03:04:33;3.00;76.60
20526;DHT22;10421;49.142;9.232;2023-03-01T03:07:00;3.00;76.50
20526;DHT22;10421;49.142;9.232;2023-03-01T03:09:27;3.10;76.60
20526;DHT22;10421;49.142;9.232;2023-03-01T03:11:54;3.10;76.60
20526;DHT22;10421;49.142;9.232;2023-03-01T03:14:21;3.10;76.60
20526;DHT22;10421;49.142;9.232;2023-03-01T03:16:49;3.10;76.50
20526;DHT22;10421;49.142;9.232;2023-03-01T03:19:18;3.10;76.40
20526;DHT22;10421;49.142;9.232;2023-03-01T03:21:46;3.10;76.40
20526;DHT22;10421;49.142;9.232;2023-03-01T03:24:12;3.10;76.50
20526;DHT22;10421;49.142;9.232;2023-03-01T03:26:39;3.10;76.50
20526;DHT22;10421;49.142;9.232;2023-03-01T03:29:06;3.10;76.50
20526;DHT22;10421;49.142;9.232;2023-03-01T03:31:33;3.10;76.40
20526;DHT22;10421;49.142;9.232;2023-03-01T03:34:00;3.10;76.40
20526;DHT22;10421;49.142;9.232;2023-03-01T03:36:28;3.10;76.40
20526;DHT22;10421;49.142;9.232;2023-03-01T03:38:55;3.10;76.40
20526;DHT22;10421;49.142;9.232;2023-03-01T03:41:21;3.10;76.40
20526;DHT22;10421;49.142;9.232;2023-03-01T03:43:48;3.10;76.60
20526;DHT22;10421;49.142;9.232;2023-03-01T03:46:15;3.10;76.50
20526;DHT22;10421;49.142;9.232;2023-03-01T03:48:43;3.20;76.50
20526;DHT22;10421;49.142;9.232;2023-03-01T03:51:11;3.10;76.40
20526;DHT22;10421;49.142;9.232;2023-03-01T03:53:40;3.10;76.60
20526;DHT22;10421;49.142;9.232;2023-03-01T03:56:07;3.10;76.60
20526;DHT22;10421;49.142;9.232;2023-03-01T03:58:34;3.10;76.40
20526;DHT22;10421;49.142;9.232;2023-03-01T04:01:01;3.10;76.50
20526;DHT22;10421;49.142;9.232;2023-03-01T04:03:31;3.00;76.50
20526;DHT22;10421;49.142;9.232;2023-03-01T04:05:58;3.00;76.50
20526;DHT22;10421;49.142;9.232;2023-03-01T04:08:27;3.00;76.50
20526;DHT22;10421;49.142;9.232;2023-03-01T04:11:00;3.00;76.60
20526;DHT22;10421;49.142;9.232;2023-03-01T04:13:47;3.00;77.40
20526;DHT22;10421;49.142;9.232;2023-03-01T04:16:14;3.00;76.70
20526;DHT22;10421;49.142;9.232;2023-03-01T04:18:40;3.00;76.70
20526;DHT22;10421;49.142;9.232;2023-03-01T04:21:07;3.00;76.60
20526;DHT22;10421;49.142;9.232;2023-03-01T04:23:34;3.00;76.60
20526;DHT22;10421;49.142;9.232;2023-03-01T04:26:03;3.00;76.80
20526;DHT22;10421;49.142;9.232;2023-03-01T04:28:32;2.90;76.80
20526;DHT22;10421;49.142;9.232;2023-03-01T04:31:03;2.90;76.80
20526;DHT22;10421;49.142;9.232;2023-03-01T04:33:38;2.90;76.80
20526;DHT22;10421;49.142;9.232;2023-03-01T04:36:06;2.90;76.80
20526;DHT22;10421;49.142;9.232;2023-03-01T04:38:34;2.80;76.90
20526;DHT22;10421;49.142;9.232;2023-03-01T04:41:04;2.70;77.10
20526;DHT22;10421;49.142;9.232;2023-03-01T04:43:31;2.60;77.50
20526;DHT22;10421;49.142;9.232;2023-03-01T04:46:00;2.50;77.80
20526;DHT22;10421;49.142;9.232;2023-03-01T04:48:28;2.50;78.10
20526;DHT22;10421;49.142;9.232;2023-03-01T04:50:54;2.40;78.30
20526;DHT22;10421;49.142;9.232;2023-03-01T04:53:21;2.40;78.50
20526;DHT22;10421;49.142;9.232;2023-03-01T04:55:48;2.40;78.60
20526;DHT22;10421;49.142;9.232;2023-03-01T04:58:16;2.40;78.70
20526;DHT22;10421;49.142;9.232;2023-03-01T05:00:42;2.40;78.80
20526;DHT22;10421;49.142;9.232;2023-03-01T05:03:09;2.30;78.90
20526;DHT22;10421;49.142;9.232;2023-03-01T05:05:37;2.30;79.20
20526;DHT22;10421;49.142;9.232;2023-03-01T05:08:06;2.30;79.30
20526;DHT22;10421;49.142;9.232;2023-03-01T05:10:35;2.30;79.30
20526;DHT22;10421;49.142;9.232;2023-03-01T05:13:04;2.30;79.20
20526;DHT22;10421;49.142;9.232;2023-03-01T05:15:33;2.30;79.30
20526;DHT22;10421;49.142;9.232;2023-03-01T05:18:02;2.30;79.40
20526;DHT22;10421;49.142;9.232;2023-03-01T05:20:29;2.20;79.50
20526;DHT22;10421;49.142;9.232;2023-03-01T05:22:58;2.20;79.60
20526;DHT22;10421;49.142;9.232;2023-03-01T05:25:25;2.20;80.40
20526;DHT22;10421;49.142;9.232;2023-03-01T05:27:52;2.20;79.80
20526;DHT22;10421;49.142;9.232;2023-03-01T05:30:19;2.10;79.80
20526;DHT22;10421;49.142;9.232;2023-03-01T05:32:49;2.20;79.80
20526;DHT22;10421;49.142;9.232;2023-03-01T05:35:21;2.20;79.90
20526;DHT22;10421;49.142;9.232;2023-03-01T05:37:49;2.10;79.90
20526;DHT22;10421;49.142;9.232;2023-03-01T05:40:18;2.10;79.90
20526;DHT22;10421;49.142;9.232;2023-03-01T05:42:47;2.20;80.00
20526;DHT22;10421;49.142;9.232;2023-03-01T05:45:15;2.20;80.00
20526;DHT22;10421;49.142;9.232;2023-03-01T05:47:44;2.20;79.90
20526;DHT22;10421;49.142;9.232;2023-03-01T05:50:14;2.20;79.90
20526;DHT22;10421;49.142;9.232;2023-03-01T05:52:45;2.20;79.80
20526;DHT22;10421;49.142;9.232;2023-03-01T05:55:12;2.30;79.90
20526;DHT22;10421;49.142;9.232;2023-03-01T05:57:39;2.20;79.80
20526;DHT22;10421;49.142;9.232;2023-03-01T06:00:07;2.30;79.80
20526;DHT22;10421;49.142;9.232;2023-03-01T06:02:34;2.30;79.70
20526;DHT22;10421;49.142;9.232;2023-03-01T06:05:01;2.30;79.70
20526;DHT22;10421;49.142;9.232;2023-03-01T06:07:29;2.30;79.70
20526;DHT22;10421;49.142;9.232;2023-03-01T06:09:55;2.40;79.70
20526;DHT22;10421;49.142;9.232;2023-03-01T06:12:22;2.40;79.60
20526;DHT22;10421;49.142;9.232;2023-03-01T06:14:49;2.30;79.50
20526;DHT22;10421;49.142;9.232;2023-03-01T06:17:16;2.30;79.60
20526;DHT22;10421;49.142;9.232;2023-03-01T06:19:42;2.30;79.60
20526;DHT22;10421;49.142;9.232;2023-03-01T06:22:09;2.30;79.70
20526;DHT22;10421;49.142;9.232;2023-03-01T06:24:37;2.30;79.60
20526;DHT22;10421;49.142;9.232;2023-03-01T06:27:04;2.30;79.50
20526;DHT22;10421;49.142;9.232;2023-03-01T06:29:30;2.30;79.50
20526;DHT22;10421;49.142;9.232;2023-03-01T06:31:57;2.40;79.50
20526;DHT22;10421;49.142;9.232;2023-03-01T06:34:24;2.30;79.40
20526;DHT22;10421;49.142;9.232;2023-03-01T06:36:51;2.30;79.40
20526;DHT22;10421;49.142;9.232;2023-03-01T06:39:17;2.40;79.40
20526;DHT22;10421;49.142;9.232;2023-03-01T06:41:45;2.40;79.40
20526;DHT22;10421;49.142;9.232;2023-03-01T06:44:12;2.50;79.40
20526;DHT22;10421;49.142;9.232;2023-03-01T06:46:39;2.50;80.00
20526;DHT22;10421;49.142;9.232;2023-03-01T06:49:06;2.50;79.10
20526;DHT22;10421;49.142;9.232;2023-03-01T06:51:35;2.60;79.10
20526;DHT22;10421;49.142;9.232;2023-03-01T06:54:02;2.60;79.10
20526;DHT22;10421;49.142;9.232;2023-03-01T06:56:29;2.60;79.00
20526;DHT22;10421;49.142;9.232;2023-03-01T06:58:57;2.60;78.90
20526;DHT22;10421;49.142;9.232;2023-03-01T07:01:24;2.70;78.80
20526;DHT22;10421;49.142;9.232;2023-03-01T07:03:51;2.60;78.60
20526;DHT22;10421;49.142;9.232;2023-03-01T07:06:18;2.60;78.60
20526;DHT22;10421;49.142;9.232;2023-03-01T07:08:45;2.70;78.50
20526;DHT22;10421;49.142;9.232;2023-03-01T07:11:11;2.70;78.50
20526;DHT22;10421;49.142;9.232;2023-03-01T07:13:38;2.80;78.60
20526;DHT22;10421;49.142;9.232;2023-03-01T07:16:07;2.90;78.60
20526;DHT22;10421;49.142;9.232;2023-03-01T07:18:34;2.90;78.50
20526;DHT22;10421;49.142;9.232;2023-03-01T07:21:04;3.00;78.00
20526;DHT22;10421;49.142;9.232;2023-03-01T07:23:31;3.00;77.70
20526;DHT22;10421;49.142;9.232;2023-03-01T07:25:58;3.10;77.70
20526;DHT22;10421;49.142;9.232;2023-03-01T07:28:25;3.10;77.40
20526;DHT22;10421;49.142;9.232;2023-03-01T07:30:53;3.20;77.20
20526;DHT22;10421;49.142;9.232;2023-03-01T07:33:21;3.20;77.00
20526;DHT22;10421;49.142;9.232;2023-03-01T07:35:48;3.20;76.80
20526;DHT22;10421;49.142;9.232;2023-03-01T07:38:14;3.30;76.70
20526;DHT22;10421;49.142;9.232;2023-03-01T07:40:41;3.30;76.50
20526;DHT22;10421;49.142;9.232;2023-03-01T07:43:08;3.40;76.40
20526;DHT22;10421;49.142;9.232;2023-03-01T07:45:34;3.40;76.10
20526;DHT22;10421;49.142;9.232;2023-03-01T07:48:01;3.40;75.90
20526;DHT22;10421;49.142;9.232;2023-03-01T07:50:29;3.50;76.00
20526;DHT22;10421;49.142;9.232;2023-03-01T07:52:56;3.50;75.50
20526;DHT22;10421;49.142;9.232;2023-03-01T07:55:23;3.60;75.50
20526;DHT22;10421;49.142;9.232;2023-03-01T07:57:49;3.60;75.40
20526;DHT22;10421;49.142;9.232;2023-03-01T08:00:17;3.60;75.20
20526;DHT22;10421;49.142;9.232;2023-03-01T08:02:44;3.70;75.10
20526;DHT22;10421;49.142;9.232;2023-03-01T08:05:11;3.80;75.10
20526;DHT22;10421;49.142;9.232;2023-03-01T08:07:39;3.90;75.00
20526;DHT22;10421;49.142;9.232;2023-03-01T08:10:06;4.00;74.70
20526;DHT22;10421;49.142;9.232;2023-03-01T08:12:33;4.10;74.60
20526;DHT22;10421;49.142;9.232;2023-03-01T08:15:00;4.20;74.30
20526;DHT22;10421;49.142;9.232;2023-03-01T08:17:26;4.30;74.00
20526;DHT22;10421;49.142;9.232;2023-03-01T08:19:53;4.30;73.60
20526;DHT22;10421;49.142;9.232;2023-03-01T08:22:20;4.30;73.40
20526;DHT22;10421;49.142;9.232;2023-03-01T08:24:48;4.30;73.40
20526;DHT22;10421;49.142;9.232;2023-03-01T08:27:15;4.40;73.50
20526;DHT22;10421;49.142;9.232;2023-03-01T08:29:42;4.50;73.50
20526;DHT22;10421;49.142;9.232;2023-03-01T08:32:08;4.60;73.70
20526;DHT22;10421;49.142;9.232;2023-03-01T08:34:35;4.70;73.40
20526;DHT22;10421;49.142;9.232;2023-03-01T08:37:02;4.80;73.00
20526;DHT22;10421;49.142;9.232;2023-03-01T08:39:29;4.90;73.10
20526;DHT22;10421;49.142;9.232;2023-03-01T08:41:57;5.00;72.70
20526;DHT22;10421;49.142;9.232;2023-03-01T08:44:24;5.10;72.50
20526;DHT22;10421;49.142;9.232;2023-03-01T08:46:51;5.20;72.20
20526;DHT22;10421;49.142;9.232;2023-03-01T08:49:19;5.30;71.90
20526;DHT22;10421;49.142;9.232;2023-03-01T08:51:47;5.50;71.50
20526;DHT22;10421;49.142;9.232;2023-03-01T08:54:15;5.60;71.00
20526;DHT22;10421;49.142;9.232;2023-03-01T08:56:43;5.70;71.30
20526;DHT22;10421;49.142;9.232;2023-03-01T08:59:13;5.80;70.20
20526;DHT22;10421;49.142;9.232;2023-03-01T09:01:40;6.00;70.00
20526;DHT22;10421;49.142;9.232;2023-03-01T09:04:09;6.20;70.00
20526;DHT22;10421;49.142;9.232;2023-03-01T09:06:42;6.50;69.60
20526;DHT22;10421;49.142;9.232;2023-03-01T09:09:13;6.70;69.00
20526;DHT22;10421;49.142;9.232;2023-03-01T09:11:41;6.80;67.80
20526;DHT22;10421;49.142;9.232;2023-03-01T09:14:08;6.90;67.70
20526;DHT22;10421;49.142;9.232;2023-03-01T09:16:36;7.10;67.20
20526;DHT22;10421;49.142;9.232;2023-03-01T09:19:03;7.20;66.30
20526;DHT22;10421;49.142;9.232;2023-03-01T09:21:30;7.30;65.90
20526;DHT22;10421;49.142;9.232;2023-03-01T09:23:58;7.40;65.80
20526;DHT22;10421;49.142;9.232;2023-03-01T09:26:25;7.60;65.90
20526;DHT22;10421;49.142;9.232;2023-03-01T09:28:54;7.70;65.60
20526;DHT22;10421;49.142;9.232;2023-03-01T09:31:22;7.80;65.20
20526;DHT22;10421;49.142;9.232;2023-03-01T09:33:52;8.00;65.00
20526;DHT22;10421;49.142;9.232;2023-03-01T09:36:20;8.10;64.40
20526;DHT22;10421;49.142;9.232;2023-03-01T09:38:48;8.30;63.80
20526;DHT22;10421;49.142;9.232;2023-03-01T09:41:26;8.40;63.60
20526;DHT22;10421;49.142;9.232;2023-03-01T09:44:01;8.60;63.20
20526;DHT22;10421;49.142;9.232;2023-03-01T09:46:32;8.80;62.70
20526;DHT22;10421;49.142;9.232;2023-03-01T09:49:10;8.90;61.80
20526;DHT22;10421;49.142;9.232;2023-03-01T09:51:38;9.10;61.80
20526;DHT22;10421;49.142;9.232;2023-03-01T09:54:06;9.20;61.00
20526;DHT22;10421;49.142;9.232;2023-03-01T09:56:37;9.30;60.70
20526;DHT22;10421;49.142;9.232;2023-03-01T09:59:16;9.50;60.70
20526;DHT22;10421;49.142;9.232;2023-03-01T10:01:50;9.60;60.10
20526;DHT22;10421;49.142;9.232;2023-03-01T10:04:28;9.70;59.90
20526;DHT22;10421;49.142;9.232;2023-03-01T10:07:07;10.00;58.80
20526;DHT22;10421;49.142;9.232;2023-03-01T10:09:41;10.10;58.30
20526;DHT22;10421;49.142;9.232;2023-03-01T10:12:11;10.20;58.10
20526;DHT22;10421;49.142;9.232;2023-03-01T10:14:43;10.40;58.00
20526;DHT22;10421;49.142;9.232;2023-03-01T10:17:24;10.50;57.30
20526;DHT22;10421;49.142;9.232;2023-03-01T10:19:53;10.60;57.00
20526;DHT22;10421;49.142;9.232;2023-03-01T10:22:24;10.70;56.70
20526;DHT22;10421;49.142;9.232;2023-03-01T10:24:54;10.70;56.40
20526;DHT22;10421;49.142;9.232;2023-03-01T10:27:23;10.80;56.10
20526;DHT22;10421;49.142;9.232;2023-03-01T10:29:56;10.90;56.10
20526;DHT22;10421;49.142;9.232;2023-03-01T10:32:26;11.00;56.10
20526;DHT22;10421;49.142;9.232;2023-03-01T10:34:54;11.20;56.10
20526;DHT22;10421;49.142;9.232;2023-03-01T10:37:22;11.30;55.60
20526;DHT22;10421;49.142;9.232;2023-03-01T10:39:57;11.40;55.30
20526;DHT22;10421;49.142;9.232;2023-03-01T10:42:29;11.50;54.50
20526;DHT22;10421;49.142;9.232;2023-03-01T10:44:57;11.50;53.90
20526;DHT22;10421;49.142;9.232;2023-03-01T10:47:25;11.60;54.20
20526;DHT22;10421;49.142;9.232;2023-03-01T10:49:57;11.70;54.20
20526;DHT22;10421;49.142;9.232;2023-03-01T10:52:27;11.70;53.50
20526;DHT22;10421;49.142;9.232;2023-03-01T10:54:55;11.80;53.20
20526;DHT22;10421;49.142;9.232;2023-03-01T10:57:30;11.90;53.10
20526;DHT22;10421;49.142;9.232;2023-03-01T11:00:13;12.00;53.10
20526;DHT22;10421;49.142;9.232;2023-03-01T11:02:41;12.00;53.50
20526;DHT22;10421;49.142;9.232;2023-03-01T11:05:19;12.10;52.80
20526;DHT22;10421;49.142;9.232;2023-03-01T11:07:51;12.30;53.00
20526;DHT22;10421;49.142;9.232;2023-03-01T11:10:20;12.40;52.50
20526;DHT22;10421;49.142;9.232;2023-03-01T11:12:47;12.70;52.80
20526;DHT22;10421;49.142;9.232;2023-03-01T11:15:24;12.90;52.70
20526;DHT22;10421;49.142;9.232;2023-03-01T11:17:51;13.10;52.50
20526;DHT22;10421;49.142;9.232;2023-03-01T11:20:25;13.20;51.70
20526;DHT22;10421;49.142;9.232;2023-03-01T11:22:55;13.30;51.40
20526;DHT22;10421;49.142;9.232;2023-03-01T11:25:26;13.50;51.20
20526;DHT22;10421;49.142;9.232;2023-03-01T11:27:53;13.60;50.80
20526;DHT22;10421;49.142;9.232;2023-03-01T11:30:23;13.70;50.60
20526;DHT22;10421;49.142;9.232;2023-03-01T11:32:56;13.70;50.10
20526;DHT22;10421;49.142;9.232;2023-03-01T11:35:29;13.70;50.30
20526;DHT22;10421;49.142;9.232;2023-03-01T11:38:06;13.80;50.20
20526;DHT22;10421;49.142;9.232;2023-03-01T11:40:40;13.90;50.00
20526;DHT22;10421;49.142;9.232;2023-03-01T11:43:18;13.90;50.00
20526;DHT22;10421;49.142;9.232;2023-03-01T11:48:55;14.10;49.90
20526;DHT22;10421;49.142;9.232;2023-03-01T11:51:38;14.20;49.70
20526;DHT22;10421;49.142;9.232;2023-03-01T11:54:12;14.10;49.60
20526;DHT22;10421;49.142;9.232;2023-03-01T11:56:45;14.20;49.70
20526;DHT22;10421;49.142;9.232;2023-03-01T11:59:42;14.30;49.40
20526;DHT22;10421;49.142;9.232;2023-03-01T12:05:39;14.40;49.00
20526;DHT22;10421;49.142;9.232;2023-03-01T12:08:17;14.40;48.80
20526;DHT22;10421;49.142;9.232;2023-03-01T12:10:52;14.30;48.80
20526;DHT22;10421;49.142;9.232;2023-03-01T12:13:47;14.20;48.60
20526;DHT22;10421;49.142;9.232;2023-03-01T12:16:27;14.10;48.80
20526;DHT22;10421;49.142;9.232;2023-03-01T12:19:15;14.00;48.60
20526;DHT22;10421;49.142;9.232;2023-03-01T12:21:55;14.00;48.70
20526;DHT22;10421;49.142;9.232;2023-03-01T12:24:49;14.00;48.60
20526;DHT22;10421;49.142;9.232;2023-03-01T12:27:31;14.10;48.60
20526;DHT22;10421;49.142;9.232;2023-03-01T12:30:13;14.10;48.50
20526;DHT22;10421;49.142;9.232;2023-03-01T12:32:49;14.10;48.50
20526;DHT22;10421;49.142;9.232;2023-03-01T12:35:55;14.20;48.70
20526;DHT22;10421;49.142;9.232;2023-03-01T12:38:33;14.30;48.70
20526;DHT22;10421;49.142;9.232;2023-03-01T12:41:16;14.30;48.30
20526;DHT22;10421;49.142;9.232;2023-03-01T12:43:56;14.30;48.30
20526;DHT22;10421;49.142;9.232;2023-03-01T12:46:38;14.30;48.20
20526;DHT22;10421;49.142;9.232;2023-03-01T12:49:10;14.30;48.20
20526;DHT22;10421;49.142;9.232;2023-03-01T12:51:38;14.20;47.70
20526;DHT22;10421;49.142;9.232;2023-03-01T12:54:14;14.20;48.00
20526;DHT22;10421;49.142;9.232;2023-03-01T12:56:42;14.20;47.80
20526;DHT22;10421;49.142;9.232;2023-03-01T12:59:20;14.20;48.40
20526;DHT22;10421;49.142;9.232;2023-03-01T13:01:53;14.30;48.20
20526;DHT22;10421;49.142;9.232;2023-03-01T13:04:37;14.40;48.10
20526;DHT22;10421;49.142;9.232;2023-03-01T13:07:16;14.40;47.90
20526;DHT22;10421;49.142;9.232;2023-03-01T13:09:51;14.40;47.60
20526;DHT22;10421;49.142;9.232;2023-03-01T13:12:45;14.50;47.70
20526;DHT22;10421;49.142;9.232;2023-03-01T13:15:26;14.50;47.30
20526;DHT22;10421;49.142;9.232;2023-03-01T13:17:55;14.60;47.30
20526;DHT22;10421;49.142;9.232;2023-03-01T13:20:25;14.60;47.10
20526;DHT22;10421;49.142;9.232;2023-03-01T13:23:03;14.60;47.20
20526;DHT22;10421;49.142;9.232;2023-03-01T13:25:30;14.60;47.00
20526;DHT22;10421;49.142;9.232;2023-03-01T13:31:05;14.70;47.20
20526;DHT22;10421;49.142;9.232;2023-03-01T13:33:43;14.70;46.90
20526;DHT22;10421;49.142;9.232;2023-03-01T13:36:13;14.90;47.00
20526;DHT22;10421;49.142;9.232;2023-03-01T13:39:02;15.00;46.70
20526;DHT22;10421;49.142;9.232;2023-03-01T13:41:50;14.80;46.20
20526;DHT22;10421;49.142;9.232;2023-03-01T13:44:22;14.80;46.10
20526;DHT22;10421;49.142;9.232;2023-03-01T13:46:52;14.90;46.50
20526;DHT22;10421;49.142;9.232;2023-03-01T13:49:21;14.90;45.90
20526;DHT22;10421;49.142;9.232;2023-03-01T13:51:50;14.90;45.90
20526;DHT22;10421;49.142;9.232;2023-03-01T13:54:25;14.80;45.90
20526;DHT22;10421;49.142;9.232;2023-03-01T13:56:53;14.60;46.10
20526;DHT22;10421;49.142;9.232;2023-03-01T13:59:21;14.50;46.40
20526;DHT22;10421;49.142;9.232;2023-03-01T14:01:53;14.50;46.20
20526;DHT22;10421;49.142;9.232;2023-03-01T14:04:22;14.40;46.40
20526;DHT22;10421;49.142;9.232;2023-03-01T14:06:51;14.40;46.20
20526;DHT22;10421;49.142;9.232;2023-03-01T14:09:21;14.30;46.20
20526;DHT22;10421;49.142;9.232;2023-03-01T14:12:25;14.30;46.30
20526;DHT22;10421;49.142;9.232;2023-03-01T14:14:57;14.20;46.40
20526;DHT22;10421;49.142;9.232;2023-03-01T14:17:39;14.30;46.70
20526;DHT22;10421;49.142;9.232;2023-03-01T14:20:12;14.20;46.50
20526;DHT22;10421;49.142;9.232;2023-03-01T14:22:41;14.20;46.50
20526;DHT22;10421;49.142;9.232;2023-03-01T14:25:22;14.20;46.30
20526;DHT22;10421;49.142;9.232;2023-03-01T14:28:02;14.10;47.00
20526;DHT22;10421;49.142;9.232;2023-03-01T14:30:34;14.10;46.60
20526;DHT22;10421;49.142;9.232;2023-03-01T14:33:02;13.90;46.60
20526;DHT22;10421;49.142;9.232;2023-03-01T14:35:32;14.00;46.80
20526;DHT22;10421;49.142;9.232;2023-03-01T14:38:00;14.00;46.60
20526;DHT22;10421;49.142;9.232;2023-03-01T14:40:30;14.10;46.70
20526;DHT22;10421;49.142;9.232;2023-03-01T14:42:59;14.10;47.30
20526;DHT22;10421;49.142;9.232;2023-03-01T14:45:28;14.10;46.30
20526;DHT22;10421;49.142;9.232;2023-03-01T14:47:59;14.10;46.30
20526;DHT22;10421;49.142;9.232;2023-03-01T14:50:28;14.10;46.30
20526;DHT22;10421;49.142;9.232;2023-03-01T14:52:56;14.10;46.40
20526;DHT22;10421;49.142;9.232;2023-03-01T14:55:28;14.00;46.40
20526;DHT22;10421;49.142;9.232;2023-03-01T14:57:57;13.80;46.20
20526;DHT22;10421;49.142;9.232;2023-03-01T15:00:26;13.80;46.40
20526;DHT22;10421;49.142;9.232;2023-03-01T15:02:54;13.70;46.50
20526;DHT22;10421;49.142;9.232;2023-03-01T15:05:25;13.70;46.80
20526;DHT22;10421;49.142;9.232;2023-03-01T15:07:54;13.80;46.90
20526;DHT22;10421;49.142;9.232;2023-03-01T15:10:23;13.80;46.90
20526;DHT22;10421;49.142;9.232;2023-03-01T15:12:52;13.90;47.00
20526;DHT22;10421;49.142;9.232;2023-03-01T15:15:21;13.90;47.00
20526;DHT22;10421;49.142;9.232;2023-03-01T15:17:52;13.80;46.90
20526;DHT22;10421;49.142;9.232;2023-03-01T15:20:24;13.90;46.90
20526;DHT22;10421;49.142;9.232;2023-03-01T15:22:53;13.90;46.90
20526;DHT22;10421;49.142;9.232;2023-03-01T15:25:22;13.90;46.90
20526;DHT22;10421;49.142;9.232;2023-03-01T15:27:52;13.90;46.70
20526;DHT22;10421;49.142;9.232;2023-03-01T15:30:22;13.80;47.20
20526;DHT22;10421;49.142;9.232;2023-03-01T15:33:18;13.80;46.80
20526;DHT22;10421;49.142;9.232;2023-03-01T15:35:47;13.70;46.60
20526;DHT22;10421;49.142;9.232;2023-03-01T15:38:50;13.70;46.70
20526;DHT22;10421;49.142;9.232;2023-03-01T15:41:24;13.60;46.80
20526;DHT22;10421;49.142;9.232;2023-03-01T15:43:54;13.60;46.80
20526;DHT22;10421;49.142;9.232;2023-03-01T15:46:29;13.50;47.00
20526;DHT22;10421;49.142;9.232;2023-03-01T15:48:59;13.50;47.10
20526;DHT22;10421;49.142;9.232;2023-03-01T15:51:32;13.30;47.00
20526;DHT22;10421;49.142;9.232;2023-03-01T15:54:02;13.20;47.10
20526;DHT22;10421;49.142;9.232;2023-03-01T15:56:29;13.20;47.50
20526;DHT22;10421;49.142;9.232;2023-03-01T15:59:02;13.10;47.40
20526;DHT22;10421;49.142;9.232;2023-03-01T16:01:29;13.20;47.60
20526;DHT22;10421;49.142;9.232;2023-03-01T16:03:56;13.20;47.80
20526;DHT22;10421;49.142;9.232;2023-03-01T16:06:23;13.20;47.60
20526;DHT22;10421;49.142;9.232;2023-03-01T16:08:50;13.20;47.60